Eko 4 — SVAR8 — position and weather

sailwx.info

Track history (hours):
 
Tides and Currents Weather Stations Pressure Air Temp Water Temp Dewpoint Dewpoint Depression Visibility Wind Speed Wind Dir Waves Ship Positions

Eko 4

Last reported at 2014-Jul-24 14:30 UTC. Time now 2014-Jul-24 14:41 UTC.
Position N 37°54' E 023°33'.

Length 88 m; draft 4.7 m.

Type: Ship (hazmat cat A). MMSI: 240912000.

Date/timePositionNaut miles runAvg speedWind from/ knotsBaromVisibWave heightAir tempDewpointWater temp
2014-Jul-24 14:30N 37°54' E 023°33'0 0.0
2014-Jul-24 13:30N 37°54' E 023°33'0 0.1
2014-Jul-24 12:30N 37°54' E 023°33'6 6.1
2014-Jul-24 11:33N 37°51' E 023°39'1110.9
2014-Jul-24 10:33N 37°41' E 023°45'2510.8
2014-Jul-24 08:17N 37°31' E 024°13'911.0
2014-Jul-24 07:30N 37°30' E 024°24'1010.8
2014-Jul-24 06:33N 37°27' E 024°36'1211.7
2014-Jul-24 05:33N 37°21' E 024°48'1111.3
2014-Jul-24 04:33N 37°19' E 025°02'1111.2
2014-Jul-24 03:33N 37°17' E 025°16'1111.0
2014-Jul-24 02:33N 37°15' E 025°30'1111.0
2014-Jul-24 01:33N 37°13' E 025°44'1110.9
2014-Jul-24 00:33N 37°10' E 025°57'1010.4
2014-Jul-23 23:33N 37°07' E 026°09'1110.7
2014-Jul-23 22:33N 37°05' E 026°22'64 3.4
2014-Jul-23 03:29N 36°30' E 027°30'36 1.5
2014-Jul-22 03:31N 36°40' E 026°47'1110.7
2014-Jul-22 02:31N 36°46' E 026°35'2211.0
2014-Jul-22 00:33N 36°57' E 026°13'1110.9
2014-Jul-21 23:33N 37°04' E 026°02'1110.9
2014-Jul-21 22:31N 37°10' E 025°50'1110.9
2014-Jul-21 21:33N 37°13' E 025°38'1010.3
2014-Jul-21 20:33N 37°15' E 025°25'210.0
2014-Jul-21 20:18N 37°16' E 025°22'7 9.9
2014-Jul-21 19:33N 37°17' E 025°13'10 9.8
2014-Jul-21 18:33N 37°19' E 025°01'10 9.6
2014-Jul-21 17:33N 37°21' E 024°49'1010.1
2014-Jul-21 16:31N 37°26' E 024°37'9 9.7
2014-Jul-21 15:33N 37°31' E 024°27'10 9.3
2014-Jul-21 14:30N 37°30' E 024°15'2010.2
2014-Jul-21 12:31N 37°37' E 023°51'10 9.8
2014-Jul-21 11:32N 37°42' E 023°41'1010.2
2014-Jul-21 10:34N 37°51' E 023°36'6 0.3
2014-Jul-20 12:33N 37°57' E 023°36'9 9.1
2014-Jul-20 11:32N 37°48' E 023°41'33 9.6
2014-Jul-20 08:07N 37°24' E 024°08'5 8.4
2014-Jul-20 07:30N 37°20' E 024°12'9 9.0
2014-Jul-20 06:31N 37°16' E 024°22'9 9.6
2014-Jul-20 05:33N 37°14' E 024°33'9 9.1
2014-Jul-20 04:33N 37°07' E 024°41'10 9.7
2014-Jul-20 03:33N 37°00' E 024°50'10 9.5
2014-Jul-20 02:32N 36°53' E 024°59'1010.4
2014-Jul-20 01:32N 36°51' E 025°11'1110.5
2014-Jul-20 00:32N 36°48' E 025°24'1010.0
2014-Jul-19 23:33N 36°46' E 025°36'1010.3
2014-Jul-19 22:33N 36°45' E 025°48'1010.3
2014-Jul-19 21:32N 36°45' E 026°01'10 9.6
2014-Jul-19 20:33N 36°46' E 026°13'33 2.5
2014-Jul-19 07:22N 36°46' E 026°54'8 9.0
2014-Jul-19 06:31N 36°39' E 026°56'19 0.6
2014-Jul-18 01:14N 36°46' E 026°35'1911.2
2014-Jul-17 23:33N 36°56' E 026°15'1211.2
2014-Jul-17 22:30N 37°03' E 026°03'1111.1
2014-Jul-17 21:33N 37°09' E 025°53'1111.0
2014-Jul-17 20:33N 37°13' E 025°40'1110.8
2014-Jul-17 19:33N 37°16' E 025°26'1010.2
2014-Jul-17 18:33N 37°17' E 025°14'1010.2
2014-Jul-17 17:33N 37°19' E 025°01'9 9.5
2014-Jul-17 16:33N 37°21' E 024°50'10 9.9
2014-Jul-17 15:33N 37°26' E 024°39'10 9.8
2014-Jul-17 14:31N 37°30' E 024°28'3010.0
2014-Jul-17 11:32N 37°37' E 023°51'10 9.9
2014-Jul-17 10:33N 37°43' E 023°41'10 9.5
2014-Jul-17 09:33N 37°50' E 023°32'1110.6
2014-Jul-17 08:33N 37°52' E 023°19'0 0.0
2014-Jul-16 10:27N 37°52' E 023°19'9 9.7
2014-Jul-16 09:33N 37°53' E 023°30'2 2.3
2014-Jul-16 08:28N 37°54' E 023°33'0 0.0
2014-Jul-16 07:28N 37°54' E 023°33'0 0.0
2014-Jul-16 06:28N 37°54' E 023°33'0 0.0
2014-Jul-16 05:28N 37°54' E 023°33'0 0.0
2014-Jul-16 04:28N 37°54' E 023°33'4 4.9
2014-Jul-16 03:33N 37°52' E 023°38'1010.0
2014-Jul-16 02:33N 37°43' E 023°44'3510.0
2014-Jul-15 23:05N 37°16' E 024°12'1010.8
2014-Jul-15 22:08N 37°08' E 024°20'1811.3
2014-Jul-15 20:32N 36°54' E 024°34'1111.1
2014-Jul-15 19:33N 36°45' E 024°42'1111.1
2014-Jul-15 18:33N 36°35' E 024°46'1111.0
2014-Jul-15 17:33N 36°24' E 024°50'1110.7
2014-Jul-15 16:33N 36°14' E 024°54'10 9.8
2014-Jul-15 15:31N 36°04' E 024°57'9 9.1
2014-Jul-15 14:32N 35°55' E 024°60'9 9.1
2014-Jul-15 13:31N 35°46' E 025°02'8 8.5
2014-Jul-15 12:33N 35°38' E 025°04'9 8.5
2014-Jul-15 11:33N 35°30' E 025°05'8 1.2
2014-Jul-15 04:32N 35°22' E 025°03'1 0.0
2014-Jul-14 15:25N 35°21' E 025°03'  
Track history (hours):
 
Tides and Currents Weather Stations Pressure Air Temp Water Temp Dewpoint Dewpoint Depression Visibility Wind Speed Wind Dir Waves Ship Positions

Eko 4

Last reported at 2014-Jul-24 14:30 UTC. Time now 2014-Jul-24 14:41 UTC.
Position N 37°54' E 023°33'.

Length 88 m; draft 4.7 m.

Type: Ship (hazmat cat A). MMSI: 240912000.

Date/timePositionNaut miles runAvg speedWind from/ knotsBaromVisibWave heightAir tempDewpointWater temp
2014-Jul-24 14:30N 37°54' E 023°33'0 0.0
2014-Jul-24 13:30N 37°54' E 023°33'0 0.1
2014-Jul-24 12:30N 37°54' E 023°33'6 6.1
2014-Jul-24 11:33N 37°51' E 023°39'1110.9
2014-Jul-24 10:33N 37°41' E 023°45'2510.8
2014-Jul-24 08:17N 37°31' E 024°13'911.0
2014-Jul-24 07:30N 37°30' E 024°24'1010.8
2014-Jul-24 06:33N 37°27' E 024°36'1211.7
2014-Jul-24 05:33N 37°21' E 024°48'1111.3
2014-Jul-24 04:33N 37°19' E 025°02'1111.2
2014-Jul-24 03:33N 37°17' E 025°16'1111.0
2014-Jul-24 02:33N 37°15' E 025°30'1111.0
2014-Jul-24 01:33N 37°13' E 025°44'1110.9
2014-Jul-24 00:33N 37°10' E 025°57'1010.4
2014-Jul-23 23:33N 37°07' E 026°09'1110.7
2014-Jul-23 22:33N 37°05' E 026°22'64 3.4
2014-Jul-23 03:29N 36°30' E 027°30'36 1.5
2014-Jul-22 03:31N 36°40' E 026°47'1110.7
2014-Jul-22 02:31N 36°46' E 026°35'2211.0
2014-Jul-22 00:33N 36°57' E 026°13'1110.9
2014-Jul-21 23:33N 37°04' E 026°02'1110.9
2014-Jul-21 22:31N 37°10' E 025°50'1110.9
2014-Jul-21 21:33N 37°13' E 025°38'1010.3
2014-Jul-21 20:33N 37°15' E 025°25'210.0
2014-Jul-21 20:18N 37°16' E 025°22'7 9.9
2014-Jul-21 19:33N 37°17' E 025°13'10 9.8
2014-Jul-21 18:33N 37°19' E 025°01'10 9.6
2014-Jul-21 17:33N 37°21' E 024°49'1010.1
2014-Jul-21 16:31N 37°26' E 024°37'9 9.7
2014-Jul-21 15:33N 37°31' E 024°27'10 9.3
2014-Jul-21 14:30N 37°30' E 024°15'2010.2
2014-Jul-21 12:31N 37°37' E 023°51'10 9.8
2014-Jul-21 11:32N 37°42' E 023°41'1010.2
2014-Jul-21 10:34N 37°51' E 023°36'6 0.3
2014-Jul-20 12:33N 37°57' E 023°36'9 9.1
2014-Jul-20 11:32N 37°48' E 023°41'33 9.6
2014-Jul-20 08:07N 37°24' E 024°08'5 8.4
2014-Jul-20 07:30N 37°20' E 024°12'9 9.0
2014-Jul-20 06:31N 37°16' E 024°22'9 9.6
2014-Jul-20 05:33N 37°14' E 024°33'9 9.1
2014-Jul-20 04:33N 37°07' E 024°41'10 9.7
2014-Jul-20 03:33N 37°00' E 024°50'10 9.5
2014-Jul-20 02:32N 36°53' E 024°59'1010.4
2014-Jul-20 01:32N 36°51' E 025°11'1110.5
2014-Jul-20 00:32N 36°48' E 025°24'1010.0
2014-Jul-19 23:33N 36°46' E 025°36'1010.3
2014-Jul-19 22:33N 36°45' E 025°48'1010.3
2014-Jul-19 21:32N 36°45' E 026°01'10 9.6
2014-Jul-19 20:33N 36°46' E 026°13'33 2.5
2014-Jul-19 07:22N 36°46' E 026°54'8 9.0
2014-Jul-19 06:31N 36°39' E 026°56'19 0.6
2014-Jul-18 01:14N 36°46' E 026°35'1911.2
2014-Jul-17 23:33N 36°56' E 026°15'1211.2
2014-Jul-17 22:30N 37°03' E 026°03'1111.1
2014-Jul-17 21:33N 37°09' E 025°53'1111.0
2014-Jul-17 20:33N 37°13' E 025°40'1110.8
2014-Jul-17 19:33N 37°16' E 025°26'1010.2
2014-Jul-17 18:33N 37°17' E 025°14'1010.2
2014-Jul-17 17:33N 37°19' E 025°01'9 9.5
2014-Jul-17 16:33N 37°21' E 024°50'10 9.9
2014-Jul-17 15:33N 37°26' E 024°39'10 9.8
2014-Jul-17 14:31N 37°30' E 024°28'3010.0
2014-Jul-17 11:32N 37°37' E 023°51'10 9.9
2014-Jul-17 10:33N 37°43' E 023°41'10 9.5
2014-Jul-17 09:33N 37°50' E 023°32'1110.6
2014-Jul-17 08:33N 37°52' E 023°19'0 0.0
2014-Jul-16 10:27N 37°52' E 023°19'9 9.7
2014-Jul-16 09:33N 37°53' E 023°30'2 2.3
2014-Jul-16 08:28N 37°54' E 023°33'0 0.0
2014-Jul-16 07:28N 37°54' E 023°33'0 0.0
2014-Jul-16 06:28N 37°54' E 023°33'0 0.0
2014-Jul-16 05:28N 37°54' E 023°33'0 0.0
2014-Jul-16 04:28N 37°54' E 023°33'4 4.9
2014-Jul-16 03:33N 37°52' E 023°38'1010.0
2014-Jul-16 02:33N 37°43' E 023°44'3510.0
2014-Jul-15 23:05N 37°16' E 024°12'1010.8
2014-Jul-15 22:08N 37°08' E 024°20'1811.3
2014-Jul-15 20:32N 36°54' E 024°34'1111.1
2014-Jul-15 19:33N 36°45' E 024°42'1111.1
2014-Jul-15 18:33N 36°35' E 024°46'1111.0
2014-Jul-15 17:33N 36°24' E 024°50'1110.7
2014-Jul-15 16:33N 36°14' E 024°54'10 9.8
2014-Jul-15 15:31N 36°04' E 024°57'9 9.1
2014-Jul-15 14:32N 35°55' E 024°60'9 9.1
2014-Jul-15 13:31N 35°46' E 025°02'8 8.5
2014-Jul-15 12:33N 35°38' E 025°04'9 8.5
2014-Jul-15 11:33N 35°30' E 025°05'8 1.2
2014-Jul-15 04:32N 35°22' E 025°03'1 0.0
2014-Jul-14 15:25N 35°21' E 025°03'  

Dump ship's entire track history